Terminal Aerodrome Forecast
Issued by NWS

Home | Current Version | Previous Version | Graphics & Text | Print | Product List | Glossary On
Versions: 1 2 3 4 5 6 7 8 9 10 11 12 13
000
FTUS43 KEAX 211100
TAFSTJ
TAF
KSTJ 211120Z 2112/2212 20007KT P6SM VCSH OVC060
     FM211700 31010KT P6SM -SHRA VCTS BKN035CB
     FM212000 33012G20KT P6SM SCT035
     FM212300 35005KT P6SM SKC=

USA.gov is the U.S. government's official web portal to all federal, state and local government web resources and services.